sensor_id;sensor_type;location;lat;lon;timestamp;temperature;humidity
9975;DHT22;5028;50.974;4.968;2023-05-28T00:02:33;14.80;99.90
9975;DHT22;5028;50.974;4.968;2023-05-28T00:05:02;14.70;99.90
9975;DHT22;5028;50.974;4.968;2023-05-28T00:07:31;14.70;99.90
9975;DHT22;5028;50.974;4.968;2023-05-28T00:10:00;14.70;99.90
9975;DHT22;5028;50.974;4.968;2023-05-28T00:12:30;14.60;99.90
9975;DHT22;5028;50.974;4.968;2023-05-28T00:14:59;14.60;99.90
9975;DHT22;5028;50.974;4.968;2023-05-28T00:17:27;14.50;99.90
9975;DHT22;5028;50.974;4.968;2023-05-28T00:19:56;14.50;99.90
9975;DHT22;5028;50.974;4.968;2023-05-28T00:22:25;14.50;99.90
9975;DHT22;5028;50.974;4.968;2023-05-28T00:24:54;14.40;99.90
9975;DHT22;5028;50.974;4.968;2023-05-28T00:27:26;14.40;99.90
9975;DHT22;5028;50.974;4.968;2023-05-28T00:29:56;14.30;99.90
9975;DHT22;5028;50.974;4.968;2023-05-28T00:32:25;14.30;99.90
9975;DHT22;5028;50.974;4.968;2023-05-28T00:34:53;14.10;99.90
9975;DHT22;5028;50.974;4.968;2023-05-28T00:37:23;14.10;99.90
9975;DHT22;5028;50.974;4.968;2023-05-28T00:39:51;14.10;99.90
9975;DHT22;5028;50.974;4.968;2023-05-28T00:42:20;14.10;99.90
9975;DHT22;5028;50.974;4.968;2023-05-28T00:44:49;14.00;99.90
9975;DHT22;5028;50.974;4.968;2023-05-28T00:47:19;14.00;99.90
9975;DHT22;5028;50.974;4.968;2023-05-28T00:49:48;14.00;99.90
9975;DHT22;5028;50.974;4.968;2023-05-28T00:52:17;13.90;99.90
9975;DHT22;5028;50.974;4.968;2023-05-28T00:54:47;13.90;99.90
9975;DHT22;5028;50.974;4.968;2023-05-28T00:57:16;13.80;99.90
9975;DHT22;5028;50.974;4.968;2023-05-28T00:59:48;13.80;99.90
9975;DHT22;5028;50.974;4.968;2023-05-28T01:02:19;13.70;99.90
9975;DHT22;5028;50.974;4.968;2023-05-28T01:04:47;13.70;99.90
9975;DHT22;5028;50.974;4.968;2023-05-28T01:07:18;13.60;99.90
9975;DHT22;5028;50.974;4.968;2023-05-28T01:09:47;13.60;99.90
9975;DHT22;5028;50.974;4.968;2023-05-28T01:12:15;13.50;99.90
9975;DHT22;5028;50.974;4.968;2023-05-28T01:14:47;13.50;99.90
9975;DHT22;5028;50.974;4.968;2023-05-28T01:17:16;13.50;99.90
9975;DHT22;5028;50.974;4.968;2023-05-28T01:19:46;13.50;99.90
9975;DHT22;5028;50.974;4.968;2023-05-28T01:22:17;13.50;99.90
9975;DHT22;5028;50.974;4.968;2023-05-28T01:24:49;13.40;99.90
9975;DHT22;5028;50.974;4.968;2023-05-28T01:27:19;13.40;99.90
9975;DHT22;5028;50.974;4.968;2023-05-28T01:29:49;13.40;99.90
9975;DHT22;5028;50.974;4.968;2023-05-28T01:32:17;13.40;99.90
9975;DHT22;5028;50.974;4.968;2023-05-28T01:34:46;13.30;99.90
9975;DHT22;5028;50.974;4.968;2023-05-28T01:37:16;13.20;99.90
9975;DHT22;5028;50.974;4.968;2023-05-28T01:39:49;13.10;99.90
9975;DHT22;5028;50.974;4.968;2023-05-28T01:42:19;13.00;99.90
9975;DHT22;5028;50.974;4.968;2023-05-28T01:44:48;12.90;99.90
9975;DHT22;5028;50.974;4.968;2023-05-28T01:47:18;12.90;99.90
9975;DHT22;5028;50.974;4.968;2023-05-28T01:49:48;12.90;99.90
9975;DHT22;5028;50.974;4.968;2023-05-28T01:52:16;12.80;99.90
9975;DHT22;5028;50.974;4.968;2023-05-28T01:54:45;12.80;99.90
9975;DHT22;5028;50.974;4.968;2023-05-28T01:57:15;12.70;99.90
9975;DHT22;5028;50.974;4.968;2023-05-28T01:59:44;12.70;99.90
9975;DHT22;5028;50.974;4.968;2023-05-28T02:02:12;12.70;99.90
9975;DHT22;5028;50.974;4.968;2023-05-28T02:04:41;12.60;99.90
9975;DHT22;5028;50.974;4.968;2023-05-28T02:07:10;12.50;99.90
9975;DHT22;5028;50.974;4.968;2023-05-28T02:09:39;12.60;99.90
9975;DHT22;5028;50.974;4.968;2023-05-28T02:12:08;12.50;99.90
9975;DHT22;5028;50.974;4.968;2023-05-28T02:14:38;12.40;99.90
9975;DHT22;5028;50.974;4.968;2023-05-28T02:17:06;12.40;99.90
9975;DHT22;5028;50.974;4.968;2023-05-28T02:19:36;12.40;99.90
9975;DHT22;5028;50.974;4.968;2023-05-28T02:22:04;12.40;99.90
9975;DHT22;5028;50.974;4.968;2023-05-28T02:24:39;12.30;99.90
9975;DHT22;5028;50.974;4.968;2023-05-28T02:27:08;12.10;99.90
9975;DHT22;5028;50.974;4.968;2023-05-28T02:29:38;12.00;99.90
9975;DHT22;5028;50.974;4.968;2023-05-28T02:32:07;12.00;99.90
9975;DHT22;5028;50.974;4.968;2023-05-28T02:34:36;12.00;99.90
9975;DHT22;5028;50.974;4.968;2023-05-28T02:37:05;11.90;99.90
9975;DHT22;5028;50.974;4.968;2023-05-28T02:39:34;11.90;99.90
9975;DHT22;5028;50.974;4.968;2023-05-28T02:42:03;11.80;99.90
9975;DHT22;5028;50.974;4.968;2023-05-28T02:44:32;11.80;99.90
9975;DHT22;5028;50.974;4.968;2023-05-28T02:47:03;11.80;99.90
9975;DHT22;5028;50.974;4.968;2023-05-28T02:49:32;11.70;99.90
9975;DHT22;5028;50.974;4.968;2023-05-28T02:52:00;11.70;99.90
9975;DHT22;5028;50.974;4.968;2023-05-28T02:54:29;11.60;99.90
9975;DHT22;5028;50.974;4.968;2023-05-28T02:56:58;11.60;99.90
9975;DHT22;5028;50.974;4.968;2023-05-28T02:59:26;11.60;99.90
9975;DHT22;5028;50.974;4.968;2023-05-28T03:01:55;11.60;99.90
9975;DHT22;5028;50.974;4.968;2023-05-28T03:04:25;11.50;99.90
9975;DHT22;5028;50.974;4.968;2023-05-28T03:06:54;11.50;99.90
9975;DHT22;5028;50.974;4.968;2023-05-28T03:09:22;11.50;99.90
9975;DHT22;5028;50.974;4.968;2023-05-28T03:11:51;11.60;99.90
9975;DHT22;5028;50.974;4.968;2023-05-28T03:14:20;11.60;99.90
9975;DHT22;5028;50.974;4.968;2023-05-28T03:16:48;11.60;99.90
9975;DHT22;5028;50.974;4.968;2023-05-28T03:19:17;11.60;99.90
9975;DHT22;5028;50.974;4.968;2023-05-28T03:21:47;11.70;99.90
9975;DHT22;5028;50.974;4.968;2023-05-28T03:24:16;11.60;99.90
9975;DHT22;5028;50.974;4.968;2023-05-28T03:26:44;11.60;99.90
9975;DHT22;5028;50.974;4.968;2023-05-28T03:29:13;11.60;99.90
9975;DHT22;5028;50.974;4.968;2023-05-28T03:31:44;11.60;99.90
9975;DHT22;5028;50.974;4.968;2023-05-28T03:34:13;11.60;99.90
9975;DHT22;5028;50.974;4.968;2023-05-28T03:36:41;11.60;99.90
9975;DHT22;5028;50.974;4.968;2023-05-28T03:39:12;11.60;99.90
9975;DHT22;5028;50.974;4.968;2023-05-28T03:41:41;11.50;99.90
9975;DHT22;5028;50.974;4.968;2023-05-28T03:44:11;11.50;99.90
9975;DHT22;5028;50.974;4.968;2023-05-28T03:46:39;11.50;99.90
9975;DHT22;5028;50.974;4.968;2023-05-28T03:49:08;11.50;99.90
9975;DHT22;5028;50.974;4.968;2023-05-28T03:51:37;11.50;99.90
9975;DHT22;5028;50.974;4.968;2023-05-28T03:54:07;11.40;99.90
9975;DHT22;5028;50.974;4.968;2023-05-28T03:56:37;11.40;99.90
9975;DHT22;5028;50.974;4.968;2023-05-28T03:59:05;11.40;99.90
9975;DHT22;5028;50.974;4.968;2023-05-28T04:01:34;11.40;99.90
9975;DHT22;5028;50.974;4.968;2023-05-28T04:04:03;11.40;99.90
9975;DHT22;5028;50.974;4.968;2023-05-28T04:06:32;11.40;99.90
9975;DHT22;5028;50.974;4.968;2023-05-28T04:09:01;11.40;99.90
9975;DHT22;5028;50.974;4.968;2023-05-28T04:11:30;11.30;99.90
9975;DHT22;5028;50.974;4.968;2023-05-28T04:14:03;11.20;99.90
9975;DHT22;5028;50.974;4.968;2023-05-28T04:16:33;11.30;99.90
9975;DHT22;5028;50.974;4.968;2023-05-28T04:19:02;11.30;99.90
9975;DHT22;5028;50.974;4.968;2023-05-28T04:21:30;11.40;99.90
9975;DHT22;5028;50.974;4.968;2023-05-28T04:23:59;11.40;99.90
9975;DHT22;5028;50.974;4.968;2023-05-28T04:26:28;11.40;99.90
9975;DHT22;5028;50.974;4.968;2023-05-28T04:28:57;11.40;99.90
9975;DHT22;5028;50.974;4.968;2023-05-28T04:31:28;11.40;99.90
9975;DHT22;5028;50.974;4.968;2023-05-28T04:33:57;11.50;99.90
9975;DHT22;5028;50.974;4.968;2023-05-28T04:36:25;11.50;99.90
9975;DHT22;5028;50.974;4.968;2023-05-28T04:38:56;11.50;99.90
9975;DHT22;5028;50.974;4.968;2023-05-28T04:41:28;11.50;99.90
9975;DHT22;5028;50.974;4.968;2023-05-28T04:43:58;11.50;99.90
9975;DHT22;5028;50.974;4.968;2023-05-28T04:46:30;11.50;99.90
9975;DHT22;5028;50.974;4.968;2023-05-28T04:49:00;11.60;99.90
9975;DHT22;5028;50.974;4.968;2023-05-28T04:51:29;11.60;99.90
9975;DHT22;5028;50.974;4.968;2023-05-28T04:53:58;11.60;99.90
9975;DHT22;5028;50.974;4.968;2023-05-28T04:56:26;11.70;99.90
9975;DHT22;5028;50.974;4.968;2023-05-28T04:58:55;11.80;99.90
9975;DHT22;5028;50.974;4.968;2023-05-28T05:01:23;11.90;99.90
9975;DHT22;5028;50.974;4.968;2023-05-28T05:03:54;12.00;99.90
9975;DHT22;5028;50.974;4.968;2023-05-28T05:06:22;12.10;99.90
9975;DHT22;5028;50.974;4.968;2023-05-28T05:08:51;12.10;99.90
9975;DHT22;5028;50.974;4.968;2023-05-28T05:11:20;12.20;99.90
9975;DHT22;5028;50.974;4.968;2023-05-28T05:13:49;12.30;99.90
9975;DHT22;5028;50.974;4.968;2023-05-28T05:16:20;12.40;99.90
9975;DHT22;5028;50.974;4.968;2023-05-28T05:18:49;12.50;99.90
9975;DHT22;5028;50.974;4.968;2023-05-28T05:21:19;12.50;99.90
9975;DHT22;5028;50.974;4.968;2023-05-28T05:23:48;12.60;99.90
9975;DHT22;5028;50.974;4.968;2023-05-28T05:26:17;12.70;99.90
9975;DHT22;5028;50.974;4.968;2023-05-28T05:28:46;12.80;99.90
9975;DHT22;5028;50.974;4.968;2023-05-28T05:31:15;12.80;99.90
9975;DHT22;5028;50.974;4.968;2023-05-28T05:33:43;13.00;99.90
9975;DHT22;5028;50.974;4.968;2023-05-28T05:36:12;13.10;99.90
9975;DHT22;5028;50.974;4.968;2023-05-28T05:38:45;13.10;99.90
9975;DHT22;5028;50.974;4.968;2023-05-28T05:41:13;13.30;99.90
9975;DHT22;5028;50.974;4.968;2023-05-28T05:43:42;13.30;99.90
9975;DHT22;5028;50.974;4.968;2023-05-28T05:46:10;13.40;99.90
9975;DHT22;5028;50.974;4.968;2023-05-28T05:48:40;13.60;99.90
9975;DHT22;5028;50.974;4.968;2023-05-28T05:51:09;13.70;99.90
9975;DHT22;5028;50.974;4.968;2023-05-28T05:53:45;13.80;99.90
9975;DHT22;5028;50.974;4.968;2023-05-28T05:56:14;13.80;99.90
9975;DHT22;5028;50.974;4.968;2023-05-28T05:58:43;13.90;99.90
9975;DHT22;5028;50.974;4.968;2023-05-28T06:01:16;14.00;99.90
9975;DHT22;5028;50.974;4.968;2023-05-28T06:03:44;14.20;99.90
9975;DHT22;5028;50.974;4.968;2023-05-28T06:06:13;14.30;99.90
9975;DHT22;5028;50.974;4.968;2023-05-28T06:08:42;14.40;99.90
9975;DHT22;5028;50.974;4.968;2023-05-28T06:11:12;14.50;99.90
9975;DHT22;5028;50.974;4.968;2023-05-28T06:13:41;14.50;99.90
9975;DHT22;5028;50.974;4.968;2023-05-28T06:16:10;14.70;99.90
9975;DHT22;5028;50.974;4.968;2023-05-28T06:18:39;14.80;99.90
9975;DHT22;5028;50.974;4.968;2023-05-28T06:21:08;14.90;99.90
9975;DHT22;5028;50.974;4.968;2023-05-28T06:23:37;15.00;99.90
9975;DHT22;5028;50.974;4.968;2023-05-28T06:26:06;15.10;99.90
9975;DHT22;5028;50.974;4.968;2023-05-28T06:28:36;15.10;99.90
9975;DHT22;5028;50.974;4.968;2023-05-28T06:31:05;15.20;99.90
9975;DHT22;5028;50.974;4.968;2023-05-28T06:33:34;15.40;99.90
9975;DHT22;5028;50.974;4.968;2023-05-28T06:36:03;15.40;99.90
9975;DHT22;5028;50.974;4.968;2023-05-28T06:38:34;15.40;99.90
9975;DHT22;5028;50.974;4.968;2023-05-28T06:41:04;15.30;99.90
9975;DHT22;5028;50.974;4.968;2023-05-28T06:43:32;15.30;99.90
9975;DHT22;5028;50.974;4.968;2023-05-28T06:46:03;15.20;99.90
9975;DHT22;5028;50.974;4.968;2023-05-28T06:48:31;15.20;99.90
9975;DHT22;5028;50.974;4.968;2023-05-28T06:51:00;15.20;99.90
9975;DHT22;5028;50.974;4.968;2023-05-28T06:53:29;15.30;99.90
9975;DHT22;5028;50.974;4.968;2023-05-28T06:55:57;15.30;99.90
9975;DHT22;5028;50.974;4.968;2023-05-28T06:58:26;15.30;99.90
9975;DHT22;5028;50.974;4.968;2023-05-28T07:00:55;15.40;99.90
9975;DHT22;5028;50.974;4.968;2023-05-28T07:03:25;15.40;99.90
9975;DHT22;5028;50.974;4.968;2023-05-28T07:05:53;15.40;99.90
9975;DHT22;5028;50.974;4.968;2023-05-28T07:08:23;15.40;99.90
9975;DHT22;5028;50.974;4.968;2023-05-28T07:10:52;15.40;99.90
9975;DHT22;5028;50.974;4.968;2023-05-28T07:13:21;15.60;99.90
9975;DHT22;5028;50.974;4.968;2023-05-28T07:15:50;15.80;99.90
9975;DHT22;5028;50.974;4.968;2023-05-28T07:18:19;15.80;99.90
9975;DHT22;5028;50.974;4.968;2023-05-28T07:20:50;15.80;99.90
9975;DHT22;5028;50.974;4.968;2023-05-28T07:23:19;15.80;99.90
9975;DHT22;5028;50.974;4.968;2023-05-28T07:25:48;15.90;99.90
9975;DHT22;5028;50.974;4.968;2023-05-28T07:28:17;15.90;99.90
9975;DHT22;5028;50.974;4.968;2023-05-28T07:30:45;16.00;99.90
9975;DHT22;5028;50.974;4.968;2023-05-28T07:33:14;16.10;99.90
9975;DHT22;5028;50.974;4.968;2023-05-28T07:35:43;16.20;99.90
9975;DHT22;5028;50.974;4.968;2023-05-28T07:38:13;16.30;99.90
9975;DHT22;5028;50.974;4.968;2023-05-28T07:40:42;16.40;99.90
9975;DHT22;5028;50.974;4.968;2023-05-28T07:43:11;16.50;99.90
9975;DHT22;5028;50.974;4.968;2023-05-28T07:45:40;16.70;99.90
9975;DHT22;5028;50.974;4.968;2023-05-28T07:48:09;16.80;99.90
9975;DHT22;5028;50.974;4.968;2023-05-28T07:50:38;16.80;99.90
9975;DHT22;5028;50.974;4.968;2023-05-28T07:53:08;17.00;99.90
9975;DHT22;5028;50.974;4.968;2023-05-28T07:55:39;17.20;99.90
9975;DHT22;5028;50.974;4.968;2023-05-28T07:58:08;17.40;99.90
9975;DHT22;5028;50.974;4.968;2023-05-28T08:00:39;17.60;99.90
9975;DHT22;5028;50.974;4.968;2023-05-28T08:03:09;17.60;99.90
9975;DHT22;5028;50.974;4.968;2023-05-28T08:05:38;17.80;99.90
9975;DHT22;5028;50.974;4.968;2023-05-28T08:08:07;18.00;99.90
9975;DHT22;5028;50.974;4.968;2023-05-28T08:10:36;18.10;99.90
9975;DHT22;5028;50.974;4.968;2023-05-28T08:13:06;18.30;99.90
9975;DHT22;5028;50.974;4.968;2023-05-28T08:15:36;18.40;99.90
9975;DHT22;5028;50.974;4.968;2023-05-28T08:18:05;18.50;99.90
9975;DHT22;5028;50.974;4.968;2023-05-28T08:20:34;18.60;99.90
9975;DHT22;5028;50.974;4.968;2023-05-28T08:23:04;18.70;99.90
9975;DHT22;5028;50.974;4.968;2023-05-28T08:25:33;18.90;99.90
9975;DHT22;5028;50.974;4.968;2023-05-28T08:28:02;19.10;99.90
9975;DHT22;5028;50.974;4.968;2023-05-28T08:30:33;19.30;99.90
9975;DHT22;5028;50.974;4.968;2023-05-28T08:33:02;19.30;99.90
9975;DHT22;5028;50.974;4.968;2023-05-28T08:35:31;19.30;99.90
9975;DHT22;5028;50.974;4.968;2023-05-28T08:38:00;19.40;99.90
9975;DHT22;5028;50.974;4.968;2023-05-28T08:40:30;19.50;99.90
9975;DHT22;5028;50.974;4.968;2023-05-28T08:43:00;19.70;99.90
9975;DHT22;5028;50.974;4.968;2023-05-28T08:45:29;19.80;99.90
9975;DHT22;5028;50.974;4.968;2023-05-28T08:47:59;20.00;99.90
9975;DHT22;5028;50.974;4.968;2023-05-28T08:50:32;20.20;99.90
9975;DHT22;5028;50.974;4.968;2023-05-28T08:53:02;20.40;99.90
9975;DHT22;5028;50.974;4.968;2023-05-28T08:55:34;20.40;99.90
9975;DHT22;5028;50.974;4.968;2023-05-28T08:58:03;20.70;99.90
9975;DHT22;5028;50.974;4.968;2023-05-28T09:00:32;20.90;99.90
9975;DHT22;5028;50.974;4.968;2023-05-28T09:03:03;21.00;99.90
9975;DHT22;5028;50.974;4.968;2023-05-28T09:05:36;21.20;99.90
9975;DHT22;5028;50.974;4.968;2023-05-28T09:08:07;21.30;99.90
9975;DHT22;5028;50.974;4.968;2023-05-28T09:10:37;21.40;99.90
9975;DHT22;5028;50.974;4.968;2023-05-28T09:13:06;21.60;99.90
9975;DHT22;5028;50.974;4.968;2023-05-28T09:15:35;21.50;99.90
9975;DHT22;5028;50.974;4.968;2023-05-28T09:18:06;21.50;99.90
9975;DHT22;5028;50.974;4.968;2023-05-28T09:20:35;21.60;99.90
9975;DHT22;5028;50.974;4.968;2023-05-28T09:23:05;22.00;99.90
9975;DHT22;5028;50.974;4.968;2023-05-28T09:25:35;22.30;99.90
9975;DHT22;5028;50.974;4.968;2023-05-28T09:28:05;22.40;99.90
9975;DHT22;5028;50.974;4.968;2023-05-28T09:30:35;22.60;99.90
9975;DHT22;5028;50.974;4.968;2023-05-28T09:33:07;22.60;99.90
9975;DHT22;5028;50.974;4.968;2023-05-28T09:35:36;22.60;99.90
9975;DHT22;5028;50.974;4.968;2023-05-28T09:38:06;22.50;99.90
9975;DHT22;5028;50.974;4.968;2023-05-28T09:40:40;22.60;99.90
9975;DHT22;5028;50.974;4.968;2023-05-28T09:43:11;22.80;99.90
9975;DHT22;5028;50.974;4.968;2023-05-28T09:45:40;22.90;99.90
9975;DHT22;5028;50.974;4.968;2023-05-28T09:48:10;23.20;99.90
9975;DHT22;5028;50.974;4.968;2023-05-28T09:50:38;23.40;99.90
9975;DHT22;5028;50.974;4.968;2023-05-28T09:53:08;23.60;99.90
9975;DHT22;5028;50.974;4.968;2023-05-28T09:55:38;23.80;99.90
9975;DHT22;5028;50.974;4.968;2023-05-28T09:58:08;23.90;99.90
9975;DHT22;5028;50.974;4.968;2023-05-28T10:00:41;23.90;99.90
9975;DHT22;5028;50.974;4.968;2023-05-28T10:03:22;24.10;99.90
9975;DHT22;5028;50.974;4.968;2023-05-28T10:05:56;24.10;99.90
9975;DHT22;5028;50.974;4.968;2023-05-28T10:08:27;24.40;99.90
9975;DHT22;5028;50.974;4.968;2023-05-28T10:10:57;24.50;99.90
9975;DHT22;5028;50.974;4.968;2023-05-28T10:13:27;24.70;99.90
9975;DHT22;5028;50.974;4.968;2023-05-28T10:15:56;24.60;99.90
9975;DHT22;5028;50.974;4.968;2023-05-28T10:18:28;24.80;99.90
9975;DHT22;5028;50.974;4.968;2023-05-28T10:20:58;24.70;99.90
9975;DHT22;5028;50.974;4.968;2023-05-28T10:23:27;24.90;99.90
9975;DHT22;5028;50.974;4.968;2023-05-28T10:25:56;25.20;99.90
9975;DHT22;5028;50.974;4.968;2023-05-28T10:28:25;25.10;99.90
9975;DHT22;5028;50.974;4.968;2023-05-28T10:31:03;25.40;99.90
9975;DHT22;5028;50.974;4.968;2023-05-28T10:33:37;25.20;99.90
9975;DHT22;5028;50.974;4.968;2023-05-28T10:36:09;25.10;99.90
9975;DHT22;5028;50.974;4.968;2023-05-28T10:38:43;25.00;99.90
9975;DHT22;5028;50.974;4.968;2023-05-28T10:41:18;25.10;99.90
9975;DHT22;5028;50.974;4.968;2023-05-28T10:43:48;25.30;99.90
9975;DHT22;5028;50.974;4.968;2023-05-28T10:46:19;25.70;99.90
9975;DHT22;5028;50.974;4.968;2023-05-28T10:49:11;25.80;99.90
9975;DHT22;5028;50.974;4.968;2023-05-28T10:51:45;26.10;99.90
9975;DHT22;5028;50.974;4.968;2023-05-28T10:54:15;26.10;99.90
9975;DHT22;5028;50.974;4.968;2023-05-28T10:57:10;25.70;99.90
9975;DHT22;5028;50.974;4.968;2023-05-28T10:59:46;25.30;99.90
9975;DHT22;5028;50.974;4.968;2023-05-28T11:02:23;25.30;99.90
9975;DHT22;5028;50.974;4.968;2023-05-28T11:04:55;25.50;99.90
9975;DHT22;5028;50.974;4.968;2023-05-28T11:07:30;26.10;99.90
9975;DHT22;5028;50.974;4.968;2023-05-28T11:10:00;26.30;99.90
9975;DHT22;5028;50.974;4.968;2023-05-28T11:12:31;25.90;99.90
9975;DHT22;5028;50.974;4.968;2023-05-28T11:15:00;25.60;99.90
9975;DHT22;5028;50.974;4.968;2023-05-28T11:17:29;25.60;99.90
9975;DHT22;5028;50.974;4.968;2023-05-28T11:19:59;25.70;99.90
9975;DHT22;5028;50.974;4.968;2023-05-28T11:22:34;26.20;99.90
9975;DHT22;5028;50.974;4.968;2023-05-28T11:25:05;26.70;99.90
9975;DHT22;5028;50.974;4.968;2023-05-28T11:27:36;27.00;99.90
9975;DHT22;5028;50.974;4.968;2023-05-28T11:30:08;27.00;99.90
9975;DHT22;5028;50.974;4.968;2023-05-28T11:32:38;26.80;99.90
9975;DHT22;5028;50.974;4.968;2023-05-28T11:35:11;26.80;99.90
9975;DHT22;5028;50.974;4.968;2023-05-28T11:37:42;26.90;99.90
9975;DHT22;5028;50.974;4.968;2023-05-28T11:40:12;26.80;99.90
9975;DHT22;5028;50.974;4.968;2023-05-28T11:42:43;26.70;99.90
9975;DHT22;5028;50.974;4.968;2023-05-28T11:45:13;26.90;99.90
9975;DHT22;5028;50.974;4.968;2023-05-28T11:47:41;27.30;99.90
9975;DHT22;5028;50.974;4.968;2023-05-28T11:50:13;27.30;99.90
9975;DHT22;5028;50.974;4.968;2023-05-28T11:52:44;27.00;99.90
9975;DHT22;5028;50.974;4.968;2023-05-28T11:55:14;26.90;99.90
9975;DHT22;5028;50.974;4.968;2023-05-28T11:57:51;26.70;99.90
9975;DHT22;5028;50.974;4.968;2023-05-28T12:00:29;26.40;99.30
9975;DHT22;5028;50.974;4.968;2023-05-28T12:03:00;26.60;99.90
9975;DHT22;5028;50.974;4.968;2023-05-28T12:05:36;26.90;99.90
9975;DHT22;5028;50.974;4.968;2023-05-28T12:08:05;27.30;99.90
9975;DHT22;5028;50.974;4.968;2023-05-28T12:10:34;27.80;99.90
9975;DHT22;5028;50.974;4.968;2023-05-28T12:13:03;28.00;99.50
9975;DHT22;5028;50.974;4.968;2023-05-28T12:15:32;27.50;99.90
9975;DHT22;5028;50.974;4.968;2023-05-28T12:18:02;27.30;99.30
9975;DHT22;5028;50.974;4.968;2023-05-28T12:20:36;27.10;99.50
9975;DHT22;5028;50.974;4.968;2023-05-28T12:23:05;27.30;99.30
9975;DHT22;5028;50.974;4.968;2023-05-28T12:25:48;26.80;99.60
9975;DHT22;5028;50.974;4.968;2023-05-28T12:28:18;26.70;99.80
9975;DHT22;5028;50.974;4.968;2023-05-28T12:30:49;26.90;99.80
9975;DHT22;5028;50.974;4.968;2023-05-28T12:33:20;27.00;99.90
9975;DHT22;5028;50.974;4.968;2023-05-28T12:35:51;27.10;99.90
9975;DHT22;5028;50.974;4.968;2023-05-28T12:38:19;27.30;99.90
9975;DHT22;5028;50.974;4.968;2023-05-28T12:40:48;27.00;99.90
9975;DHT22;5028;50.974;4.968;2023-05-28T12:43:17;27.00;99.90
9975;DHT22;5028;50.974;4.968;2023-05-28T12:45:46;26.60;99.90
9975;DHT22;5028;50.974;4.968;2023-05-28T12:48:15;26.50;99.90
9975;DHT22;5028;50.974;4.968;2023-05-28T12:50:44;26.70;99.90
9975;DHT22;5028;50.974;4.968;2023-05-28T12:53:14;26.80;99.90
9975;DHT22;5028;50.974;4.968;2023-05-28T12:55:43;26.90;99.90
9975;DHT22;5028;50.974;4.968;2023-05-28T12:58:13;27.30;99.40
9975;DHT22;5028;50.974;4.968;2023-05-28T13:00:42;27.60;99.30
9975;DHT22;5028;50.974;4.968;2023-05-28T13:03:10;27.70;99.20
9975;DHT22;5028;50.974;4.968;2023-05-28T13:05:42;27.70;98.70
9975;DHT22;5028;50.974;4.968;2023-05-28T13:08:14;27.40;99.40
9975;DHT22;5028;50.974;4.968;2023-05-28T13:10:43;27.40;99.50
9975;DHT22;5028;50.974;4.968;2023-05-28T13:13:12;27.60;99.40
9975;DHT22;5028;50.974;4.968;2023-05-28T13:15:40;27.10;99.30
9975;DHT22;5028;50.974;4.968;2023-05-28T13:18:09;26.80;99.80
9975;DHT22;5028;50.974;4.968;2023-05-28T13:20:38;26.70;99.90
9975;DHT22;5028;50.974;4.968;2023-05-28T13:23:07;27.10;99.90
9975;DHT22;5028;50.974;4.968;2023-05-28T13:25:38;26.80;99.90
9975;DHT22;5028;50.974;4.968;2023-05-28T13:28:07;26.50;99.90
9975;DHT22;5028;50.974;4.968;2023-05-28T13:30:35;26.40;99.90
9975;DHT22;5028;50.974;4.968;2023-05-28T13:33:04;26.60;99.90
9975;DHT22;5028;50.974;4.968;2023-05-28T13:35:33;26.70;99.90
9975;DHT22;5028;50.974;4.968;2023-05-28T13:38:01;27.00;99.90
9975;DHT22;5028;50.974;4.968;2023-05-28T13:40:30;26.70;99.70
9975;DHT22;5028;50.974;4.968;2023-05-28T13:43:01;26.20;99.90
9975;DHT22;5028;50.974;4.968;2023-05-28T13:45:30;26.20;99.90
9975;DHT22;5028;50.974;4.968;2023-05-28T13:47:59;26.40;99.90
9975;DHT22;5028;50.974;4.968;2023-05-28T13:50:29;26.20;99.90
9975;DHT22;5028;50.974;4.968;2023-05-28T13:52:59;25.90;99.90
9975;DHT22;5028;50.974;4.968;2023-05-28T13:55:27;25.70;99.90
9975;DHT22;5028;50.974;4.968;2023-05-28T13:57:56;25.70;99.90
9975;DHT22;5028;50.974;4.968;2023-05-28T14:00:28;25.80;99.90
9975;DHT22;5028;50.974;4.968;2023-05-28T14:03:18;25.70;99.90
9975;DHT22;5028;50.974;4.968;2023-05-28T14:05:47;25.60;99.90
9975;DHT22;5028;50.974;4.968;2023-05-28T14:08:16;25.30;99.90
9975;DHT22;5028;50.974;4.968;2023-05-28T14:10:46;25.40;99.90
9975;DHT22;5028;50.974;4.968;2023-05-28T14:13:14;25.40;99.90
9975;DHT22;5028;50.974;4.968;2023-05-28T14:15:44;25.40;99.90
9975;DHT22;5028;50.974;4.968;2023-05-28T14:18:13;25.40;99.90
9975;DHT22;5028;50.974;4.968;2023-05-28T14:20:42;25.50;99.90
9975;DHT22;5028;50.974;4.968;2023-05-28T14:23:11;25.50;99.90
9975;DHT22;5028;50.974;4.968;2023-05-28T14:25:40;25.60;99.70
9975;DHT22;5028;50.974;4.968;2023-05-28T14:28:08;25.70;99.60
9975;DHT22;5028;50.974;4.968;2023-05-28T14:30:38;25.70;99.20
9975;DHT22;5028;50.974;4.968;2023-05-28T14:33:09;25.50;98.80
9975;DHT22;5028;50.974;4.968;2023-05-28T14:35:38;25.50;99.40
9975;DHT22;5028;50.974;4.968;2023-05-28T14:38:07;25.50;99.10
9975;DHT22;5028;50.974;4.968;2023-05-28T14:40:36;25.50;99.30
9975;DHT22;5028;50.974;4.968;2023-05-28T14:43:05;25.50;98.40
9975;DHT22;5028;50.974;4.968;2023-05-28T14:45:33;25.50;99.40
9975;DHT22;5028;50.974;4.968;2023-05-28T14:48:02;25.40;99.00
9975;DHT22;5028;50.974;4.968;2023-05-28T14:50:32;25.10;98.80
9975;DHT22;5028;50.974;4.968;2023-05-28T14:53:01;25.00;99.90
9975;DHT22;5028;50.974;4.968;2023-05-28T14:55:30;25.00;99.90
9975;DHT22;5028;50.974;4.968;2023-05-28T14:57:59;25.10;99.90
9975;DHT22;5028;50.974;4.968;2023-05-28T15:00:27;25.10;99.90
9975;DHT22;5028;50.974;4.968;2023-05-28T15:02:57;24.90;99.90
9975;DHT22;5028;50.974;4.968;2023-05-28T15:05:25;24.90;99.90
9975;DHT22;5028;50.974;4.968;2023-05-28T15:07:56;24.90;99.90
9975;DHT22;5028;50.974;4.968;2023-05-28T15:10:25;24.90;99.90
9975;DHT22;5028;50.974;4.968;2023-05-28T15:12:53;24.90;99.90
9975;DHT22;5028;50.974;4.968;2023-05-28T15:15:24;24.80;99.90
9975;DHT22;5028;50.974;4.968;2023-05-28T15:17:53;24.90;99.90
9975;DHT22;5028;50.974;4.968;2023-05-28T15:20:23;24.80;99.90
9975;DHT22;5028;50.974;4.968;2023-05-28T15:22:52;24.90;99.80
9975;DHT22;5028;50.974;4.968;2023-05-28T15:25:23;24.90;99.40
9975;DHT22;5028;50.974;4.968;2023-05-28T15:27:52;24.70;99.60
9975;DHT22;5028;50.974;4.968;2023-05-28T15:30:22;24.70;99.90
9975;DHT22;5028;50.974;4.968;2023-05-28T15:32:52;24.70;99.90
9975;DHT22;5028;50.974;4.968;2023-05-28T15:35:25;24.70;99.00
9975;DHT22;5028;50.974;4.968;2023-05-28T15:37:55;24.70;99.90
9975;DHT22;5028;50.974;4.968;2023-05-28T15:40:27;24.80;99.20
9975;DHT22;5028;50.974;4.968;2023-05-28T15:43:01;24.80;98.90
9975;DHT22;5028;50.974;4.968;2023-05-28T15:45:31;24.70;96.70
9975;DHT22;5028;50.974;4.968;2023-05-28T15:48:00;24.50;97.30
9975;DHT22;5028;50.974;4.968;2023-05-28T15:50:29;24.50;96.70
9975;DHT22;5028;50.974;4.968;2023-05-28T15:52:59;24.40;97.60
9975;DHT22;5028;50.974;4.968;2023-05-28T15:55:30;24.50;98.30
9975;DHT22;5028;50.974;4.968;2023-05-28T15:57:59;24.50;98.20
9975;DHT22;5028;50.974;4.968;2023-05-28T16:00:29;24.50;98.60
9975;DHT22;5028;50.974;4.968;2023-05-28T16:03:01;24.40;98.90
9975;DHT22;5028;50.974;4.968;2023-05-28T16:05:31;24.30;99.30
9975;DHT22;5028;50.974;4.968;2023-05-28T16:08:02;24.30;99.90
9975;DHT22;5028;50.974;4.968;2023-05-28T16:10:34;24.30;99.90
9975;DHT22;5028;50.974;4.968;2023-05-28T16:13:05;24.40;99.90
9975;DHT22;5028;50.974;4.968;2023-05-28T16:15:37;24.40;99.90
9975;DHT22;5028;50.974;4.968;2023-05-28T16:18:07;24.30;99.90
9975;DHT22;5028;50.974;4.968;2023-05-28T16:20:37;24.30;99.90